createdAt,value
2022-11-09T00:06:40.611Z,68.8
2022-11-09T00:11:40.531Z,68.7
2022-11-09T00:16:40.534Z,68.7
2022-11-09T00:21:40.525Z,68.8
2022-11-09T00:31:40.554Z,68.9
2022-11-09T00:41:40.542Z,68.8
2022-11-09T00:51:40.551Z,68.6
2022-11-09T00:56:40.534Z,69.2
2022-11-09T01:06:40.599Z,68.6
2022-11-09T01:11:40.564Z,68.6
2022-11-09T01:16:40.535Z,68.6
2022-11-09T01:26:40.536Z,68.7
2022-11-09T01:36:40.553Z,68.6
2022-11-09T01:41:40.541Z,68.6
2022-11-09T01:46:40.547Z,68.4
2022-11-09T01:51:40.544Z,68.6
2022-11-09T02:01:40.582Z,68.9
2022-11-09T02:06:40.586Z,68.9
2022-11-09T02:11:40.543Z,68.8
2022-11-09T02:21:40.560Z,68.7
2022-11-09T02:26:40.600Z,68.6
2022-11-09T02:36:40.539Z,68.6
2022-11-09T02:41:40.579Z,68.6
2022-11-09T02:51:40.597Z,69.1
2022-11-09T03:01:40.623Z,68.9
2022-11-09T03:11:40.549Z,68.9
2022-11-09T03:16:40.552Z,68.8
2022-11-09T03:21:40.598Z,68.9
2022-11-09T03:31:40.551Z,68.9
2022-11-09T03:41:40.587Z,69.3
2022-11-09T03:46:40.578Z,69
2022-11-09T03:56:40.559Z,69
2022-11-09T04:01:40.666Z,68.8
2022-11-09T04:06:40.602Z,69
2022-11-09T04:16:40.555Z,68.8
2022-11-09T04:21:40.622Z,69
2022-11-09T04:26:40.559Z,69.1
2022-11-09T04:36:40.567Z,68.8
2022-11-09T04:46:40.590Z,68.8
2022-11-09T04:51:40.582Z,68.6
2022-11-09T04:56:40.589Z,68.6
2022-11-09T05:01:40.587Z,68.6
2022-11-09T05:11:40.639Z,69.1
2022-11-09T05:21:40.577Z,72.5
2022-11-09T05:26:40.578Z,73.2
2022-11-09T05:31:40.617Z,71.7
2022-11-09T05:36:40.597Z,70.7
2022-11-09T05:46:40.603Z,69.8
2022-11-09T05:56:40.621Z,69
2022-11-09T06:06:40.645Z,68.5
2022-11-09T06:11:40.605Z,68.6
2022-11-09T06:16:40.628Z,68.7
2022-11-09T06:21:40.615Z,69.4
2022-11-09T06:31:40.604Z,71.7
2022-11-09T06:36:40.631Z,72.3
2022-11-09T06:41:44.727Z,73
2022-11-09T06:51:40.612Z,72.3
2022-11-09T06:56:40.630Z,71.7
2022-11-09T07:01:40.675Z,70.8
2022-11-09T07:11:40.608Z,69.3
2022-11-09T07:21:40.660Z,68.7
2022-11-09T07:31:40.604Z,68.5
2022-11-09T07:36:40.608Z,68.4
2022-11-09T07:46:40.635Z,68.6
2022-11-09T07:56:40.605Z,68.6
2022-11-09T08:01:40.688Z,69.7
2022-11-09T08:11:40.632Z,69
2022-11-09T08:16:40.603Z,68.9
2022-11-09T08:21:40.606Z,68.9
2022-11-09T08:31:40.637Z,68.8
2022-11-09T08:36:40.608Z,68.7
2022-11-09T08:46:41.573Z,68.6
2022-11-09T08:56:40.637Z,68.6
2022-11-09T09:06:40.671Z,68.4
2022-11-09T09:11:40.610Z,68.3
2022-11-09T09:21:40.634Z,68.2
2022-11-09T09:31:40.609Z,67.6
2022-11-09T09:41:40.630Z,67.3
2022-11-09T09:51:40.641Z,66.4
2022-11-09T10:01:40.642Z,66.6
2022-11-09T10:06:40.737Z,66.6
2022-11-09T10:11:40.660Z,66.4
2022-11-09T10:21:40.668Z,66.3
2022-11-09T10:26:40.629Z,66.3
2022-11-09T10:36:40.632Z,66.1
2022-11-09T10:41:40.669Z,66.1
2022-11-09T10:51:40.633Z,65.7
2022-11-09T10:57:00.704Z,65
2022-11-09T11:01:40.785Z,65.3
2022-11-09T11:11:40.633Z,65.1
2022-11-09T11:16:40.629Z,65.1
2022-11-09T11:26:40.659Z,64.8
2022-11-09T11:31:40.649Z,64.7
2022-11-09T11:41:40.650Z,64.9
2022-11-09T11:46:40.726Z,65
2022-11-09T11:56:40.675Z,64.9
2022-11-09T12:06:43.981Z,65
2022-11-09T12:16:40.646Z,64.8
2022-11-09T12:26:40.780Z,65.2
2022-11-09T12:31:40.665Z,65.1
2022-11-09T12:41:40.675Z,65.2
2022-11-09T12:51:40.685Z,65.3
2022-11-09T13:01:40.762Z,65.2
2022-11-09T13:11:40.672Z,65.3
2022-11-09T13:16:40.652Z,65.3
2022-11-09T13:21:40.657Z,65.5
2022-11-09T13:26:40.679Z,65.4
2022-11-09T13:41:40.689Z,65.4
2022-11-09T13:46:40.696Z,65
2022-11-09T13:56:40.661Z,64.9
2022-11-09T14:01:40.773Z,65
2022-11-09T14:11:40.677Z,64.7
2022-11-09T14:21:40.789Z,64.7
2022-11-09T14:26:40.666Z,64.8
2022-11-09T14:31:45.115Z,64.9
2022-11-09T14:36:40.683Z,65
2022-11-09T14:46:40.711Z,64.8
2022-11-09T14:51:40.773Z,65
2022-11-09T15:01:40.696Z,64.9
2022-11-09T15:11:40.897Z,64.6
2022-11-09T15:16:40.692Z,64.7
2022-11-09T15:21:40.697Z,64.2
2022-11-09T15:31:40.870Z,64.3
2022-11-09T15:36:45.025Z,64.2
2022-11-09T15:41:40.692Z,64.5
2022-11-09T15:51:40.724Z,64.6
2022-11-09T15:56:40.701Z,64.5
2022-11-09T16:01:40.696Z,64.7
2022-11-09T16:11:40.733Z,64.8
2022-11-09T16:21:40.693Z,65
2022-11-09T16:26:40.691Z,65.3
2022-11-09T16:31:51.444Z,65.2
2022-11-09T16:36:47.962Z,65.2
2022-11-09T16:46:40.735Z,65.1
2022-11-09T16:51:40.790Z,65.1
2022-11-09T17:01:40.788Z,65
2022-11-09T17:06:40.729Z,65.1
2022-11-09T17:16:40.721Z,65.7
2022-11-09T17:26:40.690Z,65.2
2022-11-09T17:31:40.692Z,65.2
2022-11-09T17:37:03.607Z,65.3
2022-11-09T17:46:40.703Z,65.2
2022-11-09T17:51:40.695Z,65.3
2022-11-09T17:56:40.732Z,65.2
2022-11-09T18:06:40.746Z,65.3
2022-11-09T18:11:40.708Z,65.3
2022-11-09T18:21:40.730Z,65.1
2022-11-09T18:31:40.717Z,65.3
2022-11-09T18:36:40.718Z,65.2
2022-11-09T18:46:40.736Z,65.9
2022-11-09T18:51:40.717Z,65.3
2022-11-09T19:01:40.710Z,65.3
2022-11-09T19:11:40.741Z,65.3
2022-11-09T19:21:40.739Z,65.2
2022-11-09T19:31:40.767Z,65.4
2022-11-09T19:41:40.726Z,65.5
2022-11-09T19:46:40.734Z,65.7
2022-11-09T19:56:40.747Z,65.9
2022-11-09T20:01:40.790Z,66.3
2022-11-09T20:11:40.755Z,65.8
2022-11-09T20:21:40.752Z,65.7
2022-11-09T20:26:40.736Z,65.7
2022-11-09T20:31:40.740Z,65.7
2022-11-09T20:36:40.736Z,65.6
2022-11-09T20:46:40.760Z,65.4
2022-11-09T20:51:40.739Z,65.2
2022-11-09T21:01:40.799Z,65.3
2022-11-09T21:11:40.776Z,65.1
2022-11-09T21:16:40.760Z,65.1
2022-11-09T21:26:40.750Z,65.1
2022-11-09T21:36:40.779Z,65.1
2022-11-09T21:41:40.743Z,65.1
2022-11-09T21:46:40.749Z,65.2
2022-11-09T21:51:40.748Z,65.2
2022-11-09T22:01:40.859Z,65.4
2022-11-09T22:11:40.749Z,65.1
2022-11-09T22:16:40.774Z,65.1
2022-11-09T22:21:40.776Z,65
2022-11-09T22:26:40.754Z,65
2022-11-09T22:31:40.753Z,64.8
2022-11-09T22:36:40.772Z,65
2022-11-09T22:46:40.796Z,65.2
2022-11-09T22:51:40.778Z,65.1
2022-11-09T23:01:40.806Z,65.1
2022-11-09T23:11:40.808Z,65
2022-11-09T23:21:40.793Z,65.1
2022-11-09T23:26:40.776Z,65.2
2022-11-09T23:31:40.802Z,65.3
2022-11-09T23:41:40.782Z,65.3
2022-11-09T23:51:40.848Z,65.2
